VBD207 SEQM-SEGU
Flight info
| Callsign | VBD207 |
|---|---|
| Flight time | 1h 6m |
| Altitude | 20000 |
| Route | TEMOX3B TEMOX TEMOX2 |
| Aircraft | C208/L-SDFGR/C |
Departure
| Time | 2026-05-06 05:52 |
|---|---|
| Airport | Mariscal Sucre International Airport (SEQM) |
Arrival
| Time | 2026-05-06 06:58 |
|---|---|
| Airport | José Joaquín de Olmedo International Airport (SEGU) |
| Time | Latitude | Longitude | Altitude | Speed | Heading |
|---|---|---|---|---|---|
| 2026-05-06 05:34 | -0.12547 | -78.35760 | 7840 ft | 0 kts | 86° |
| 2026-05-06 05:45 | -0.12547 | -78.35758 | 7837 ft | 1 kts | 114° |
| 2026-05-06 05:45 | -0.12582 | -78.35766 | 7840 ft | 11 kts | 214° |
| 2026-05-06 05:45 | -0.12658 | -78.35818 | 7838 ft | 16 kts | 184° |
| 2026-05-06 05:46 | -0.12701 | -78.35761 | 7844 ft | 8 kts | 87° |
| 2026-05-06 05:46 | -0.12706 | -78.35697 | 7847 ft | 9 kts | 130° |
| 2026-05-06 05:46 | -0.12756 | -78.35680 | 7856 ft | 7 kts | 176° |
| 2026-05-06 05:46 | -0.12818 | -78.35680 | 7861 ft | 11 kts | 181° |
| 2026-05-06 05:47 | -0.12909 | -78.35677 | 7866 ft | 16 kts | 175° |
| 2026-05-06 05:47 | -0.13026 | -78.35673 | 7871 ft | 17 kts | 176° |
| 2026-05-06 05:47 | -0.13145 | -78.35649 | 7876 ft | 15 kts | 143° |
| 2026-05-06 05:47 | -0.13194 | -78.35587 | 7880 ft | 12 kts | 141° |
| 2026-05-06 05:48 | -0.13292 | -78.35576 | 7883 ft | 18 kts | 180° |
| 2026-05-06 05:48 | -0.13414 | -78.35571 | 7884 ft | 17 kts | 179° |
| 2026-05-06 05:48 | -0.13540 | -78.35567 | 7888 ft | 16 kts | 173° |
| 2026-05-06 05:48 | -0.13606 | -78.35538 | 7891 ft | 7 kts | 121° |
| 2026-05-06 05:49 | -0.13573 | -78.35486 | 7890 ft | 14 kts | 24° |
| 2026-05-06 05:49 | -0.13470 | -78.35437 | 7887 ft | 14 kts | 39° |
| 2026-05-06 05:49 | -0.13426 | -78.35399 | 7887 ft | 0 kts | 358° |
| 2026-05-06 05:50 | -0.13424 | -78.35399 | 7887 ft | 3 kts | 358° |
| 2026-05-06 05:50 | -0.13420 | -78.35399 | 7887 ft | 0 kts | 358° |
| 2026-05-06 05:50 | -0.13416 | -78.35399 | 7887 ft | 7 kts | 358° |
| 2026-05-06 05:51 | -0.13165 | -78.35412 | 7880 ft | 64 kts | 356° |
| 2026-05-06 05:51 | -0.12562 | -78.35443 | 7910 ft | 104 kts | 355° |
| 2026-05-06 05:51 | -0.11794 | -78.35492 | 8075 ft | 118 kts | 356° |
| 2026-05-06 05:51 | -0.10976 | -78.35538 | 8376 ft | 122 kts | 356° |
| 2026-05-06 05:52 | -0.10043 | -78.35593 | 8500 ft | 142 kts | 359° |
| 2026-05-06 05:52 | -0.09055 | -78.35594 | 8825 ft | 143 kts | 1° |
| 2026-05-06 05:52 | -0.08049 | -78.35580 | 9046 ft | 145 kts | 0° |
| 2026-05-06 05:52 | -0.07062 | -78.35684 | 9386 ft | 142 kts | 347° |
| 2026-05-06 05:53 | -0.06162 | -78.36149 | 9546 ft | 156 kts | 322° |
| 2026-05-06 05:53 | -0.05366 | -78.37041 | 9194 ft | 185 kts | 317° |
| 2026-05-06 05:53 | -0.04209 | -78.37547 | 9188 ft | 179 kts | 354° |
| 2026-05-06 05:53 | -0.03043 | -78.37664 | 9515 ft | 165 kts | 346° |
| 2026-05-06 05:54 | -0.02066 | -78.38212 | 9818 ft | 158 kts | 326° |
| 2026-05-06 05:54 | -0.01139 | -78.38777 | 10106 ft | 154 kts | 333° |
| 2026-05-06 05:54 | -0.00214 | -78.39283 | 10380 ft | 150 kts | 333° |
| 2026-05-06 05:54 | 0.00675 | -78.39772 | 10650 ft | 144 kts | 333° |
| 2026-05-06 05:55 | 0.01553 | -78.40260 | 10912 ft | 144 kts | 332° |
| 2026-05-06 05:55 | 0.02417 | -78.40729 | 11185 ft | 141 kts | 333° |
| 2026-05-06 05:55 | 0.03276 | -78.41213 | 11459 ft | 143 kts | 333° |
| 2026-05-06 05:55 | 0.04145 | -78.41700 | 11726 ft | 144 kts | 333° |
| 2026-05-06 05:56 | 0.05011 | -78.42183 | 12011 ft | 146 kts | 333° |
| 2026-05-06 05:56 | 0.05893 | -78.42696 | 12292 ft | 148 kts | 326° |
| 2026-05-06 05:56 | 0.06679 | -78.43366 | 12577 ft | 149 kts | 320° |
| 2026-05-06 05:56 | 0.07458 | -78.44047 | 12864 ft | 148 kts | 321° |
| 2026-05-06 05:57 | 0.08203 | -78.44760 | 13158 ft | 149 kts | 312° |
| 2026-05-06 05:57 | 0.08864 | -78.45563 | 13448 ft | 151 kts | 311° |
| 2026-05-06 05:57 | 0.09535 | -78.46378 | 13739 ft | 152 kts | 310° |
| 2026-05-06 05:57 | 0.10216 | -78.47194 | 14034 ft | 154 kts | 311° |
| 2026-05-06 05:58 | 0.10900 | -78.48018 | 14307 ft | 152 kts | 311° |
| 2026-05-06 05:58 | 0.11556 | -78.48812 | 14562 ft | 149 kts | 310° |
| 2026-05-06 05:58 | 0.12209 | -78.49607 | 14823 ft | 149 kts | 311° |
| 2026-05-06 05:58 | 0.12863 | -78.50417 | 15090 ft | 150 kts | 310° |
| 2026-05-06 05:59 | 0.13167 | -78.51377 | 15346 ft | 148 kts | 259° |
| 2026-05-06 05:59 | 0.12654 | -78.52185 | 15624 ft | 137 kts | 216° |
| 2026-05-06 05:59 | 0.11963 | -78.52834 | 15907 ft | 137 kts | 218° |
| 2026-05-06 05:59 | 0.11282 | -78.53483 | 16183 ft | 133 kts | 217° |
| 2026-05-06 06:00 | 0.10612 | -78.54114 | 16462 ft | 132 kts | 218° |
| 2026-05-06 06:00 | 0.09945 | -78.54743 | 16740 ft | 131 kts | 218° |
| 2026-05-06 06:00 | 0.09291 | -78.55355 | 17012 ft | 129 kts | 218° |
| 2026-05-06 06:00 | 0.08649 | -78.55958 | 17291 ft | 124 kts | 218° |
| 2026-05-06 06:01 | 0.08027 | -78.56535 | 17551 ft | 119 kts | 218° |
| 2026-05-06 06:01 | 0.07441 | -78.57082 | 17813 ft | 111 kts | 217° |
| 2026-05-06 06:01 | 0.06900 | -78.57590 | 18047 ft | 102 kts | 216° |
| 2026-05-06 06:01 | 0.06393 | -78.58070 | 18223 ft | 100 kts | 217° |
| 2026-05-06 06:02 | 0.05883 | -78.58554 | 18357 ft | 100 kts | 217° |
| 2026-05-06 06:02 | 0.05368 | -78.59036 | 18465 ft | 102 kts | 218° |
| 2026-05-06 06:02 | 0.04854 | -78.59515 | 18578 ft | 103 kts | 218° |
| 2026-05-06 06:02 | 0.04339 | -78.59995 | 18706 ft | 101 kts | 217° |
| 2026-05-06 06:03 | 0.03821 | -78.60481 | 18800 ft | 103 kts | 218° |
| 2026-05-06 06:03 | 0.03303 | -78.60964 | 18931 ft | 101 kts | 218° |
| 2026-05-06 06:03 | 0.02785 | -78.61443 | 19004 ft | 104 kts | 218° |
| 2026-05-06 06:03 | 0.02256 | -78.61933 | 19120 ft | 103 kts | 218° |
| 2026-05-06 06:04 | 0.01728 | -78.62429 | 19248 ft | 105 kts | 218° |
| 2026-05-06 06:04 | 0.01197 | -78.62922 | 19359 ft | 104 kts | 218° |
| 2026-05-06 06:04 | 0.00670 | -78.63419 | 19482 ft | 105 kts | 217° |
| 2026-05-06 06:04 | 0.00135 | -78.63923 | 19593 ft | 105 kts | 217° |
| 2026-05-06 06:05 | -0.00395 | -78.64430 | 19715 ft | 108 kts | 217° |
| 2026-05-06 06:05 | -0.00947 | -78.64947 | 19841 ft | 109 kts | 218° |
| 2026-05-06 06:05 | -0.01541 | -78.65420 | 19976 ft | 109 kts | 198° |
| 2026-05-06 06:05 | -0.02238 | -78.65763 | 20120 ft | 115 kts | 203° |
| 2026-05-06 06:06 | -0.02972 | -78.66175 | 20277 ft | 125 kts | 203° |
| 2026-05-06 06:06 | -0.03754 | -78.66619 | 20445 ft | 133 kts | 204° |
| 2026-05-06 06:06 | -0.04573 | -78.67086 | 20602 ft | 139 kts | 204° |
| 2026-05-06 06:06 | -0.05429 | -78.67574 | 20750 ft | 145 kts | 205° |
| 2026-05-06 06:07 | -0.06331 | -78.68093 | 20900 ft | 153 kts | 205° |
| 2026-05-06 06:07 | -0.07271 | -78.68632 | 20977 ft | 165 kts | 206° |
| 2026-05-06 06:07 | -0.08306 | -78.69229 | 20974 ft | 177 kts | 206° |
| 2026-05-06 06:07 | -0.09402 | -78.69860 | 20965 ft | 187 kts | 206° |
| 2026-05-06 06:08 | -0.10551 | -78.70520 | 20960 ft | 194 kts | 206° |
| 2026-05-06 06:08 | -0.11737 | -78.71201 | 20952 ft | 200 kts | 206° |
| 2026-05-06 06:08 | -0.12958 | -78.71903 | 20946 ft | 204 kts | 206° |
| 2026-05-06 06:08 | -0.14199 | -78.72617 | 20941 ft | 207 kts | 206° |
| 2026-05-06 06:09 | -0.15457 | -78.73339 | 20942 ft | 209 kts | 206° |
| 2026-05-06 06:09 | -0.16710 | -78.74057 | 20941 ft | 212 kts | 207° |
| 2026-05-06 06:09 | -0.17993 | -78.74793 | 20943 ft | 213 kts | 207° |
| 2026-05-06 06:09 | -0.19280 | -78.75533 | 20938 ft | 214 kts | 206° |
| 2026-05-06 06:10 | -0.20565 | -78.76271 | 20939 ft | 213 kts | 207° |
| 2026-05-06 06:10 | -0.21847 | -78.77007 | 20940 ft | 212 kts | 207° |
| 2026-05-06 06:10 | -0.22721 | -78.77508 | 20937 ft | 212 kts | 207° |
| 2026-05-06 06:10 | -0.24003 | -78.78245 | 20934 ft | 213 kts | 207° |
| 2026-05-06 06:11 | -0.25293 | -78.78986 | 20937 ft | 214 kts | 207° |
| 2026-05-06 06:11 | -0.26566 | -78.79717 | 20937 ft | 214 kts | 207° |
| 2026-05-06 06:11 | -0.27855 | -78.80456 | 20936 ft | 214 kts | 207° |
| 2026-05-06 06:11 | -0.29147 | -78.81198 | 20935 ft | 215 kts | 207° |
| 2026-05-06 06:12 | -0.30441 | -78.81941 | 20934 ft | 215 kts | 207° |
| 2026-05-06 06:12 | -0.31741 | -78.82689 | 20934 ft | 215 kts | 207° |
| 2026-05-06 06:12 | -0.33042 | -78.83435 | 20932 ft | 217 kts | 207° |
| 2026-05-06 06:12 | -0.34357 | -78.84191 | 20933 ft | 218 kts | 207° |
| 2026-05-06 06:13 | -0.35676 | -78.84947 | 20929 ft | 219 kts | 207° |
| 2026-05-06 06:13 | -0.37001 | -78.85709 | 20928 ft | 221 kts | 207° |
| 2026-05-06 06:13 | -0.38329 | -78.86472 | 20924 ft | 220 kts | 207° |
| 2026-05-06 06:13 | -0.39632 | -78.87219 | 20922 ft | 218 kts | 207° |
| 2026-05-06 06:14 | -0.40941 | -78.87972 | 20920 ft | 217 kts | 207° |
| 2026-05-06 06:14 | -0.42247 | -78.88722 | 20914 ft | 216 kts | 207° |
| 2026-05-06 06:14 | -0.43551 | -78.89470 | 20916 ft | 216 kts | 207° |
| 2026-05-06 06:14 | -0.44855 | -78.90219 | 20912 ft | 217 kts | 207° |
| 2026-05-06 06:15 | -0.46160 | -78.90968 | 20909 ft | 216 kts | 207° |
| 2026-05-06 06:15 | -0.47463 | -78.91716 | 20905 ft | 216 kts | 207° |
| 2026-05-06 06:15 | -0.48756 | -78.92461 | 20903 ft | 212 kts | 207° |
| 2026-05-06 06:15 | -0.50012 | -78.93181 | 20906 ft | 211 kts | 207° |
| 2026-05-06 06:16 | -0.51291 | -78.93916 | 20905 ft | 213 kts | 207° |
| 2026-05-06 06:16 | -0.52580 | -78.94656 | 20904 ft | 214 kts | 207° |
| 2026-05-06 06:16 | -0.53873 | -78.95399 | 20903 ft | 215 kts | 207° |
| 2026-05-06 06:16 | -0.55170 | -78.96145 | 20899 ft | 215 kts | 207° |
| 2026-05-06 06:17 | -0.56465 | -78.96886 | 20902 ft | 215 kts | 207° |
| 2026-05-06 06:17 | -0.57760 | -78.97630 | 20898 ft | 214 kts | 207° |
| 2026-05-06 06:17 | -0.59053 | -78.98373 | 20900 ft | 214 kts | 207° |
| 2026-05-06 06:17 | -0.60349 | -78.99116 | 20897 ft | 215 kts | 207° |
| 2026-05-06 06:18 | -0.61648 | -78.99864 | 20893 ft | 216 kts | 207° |
| 2026-05-06 06:18 | -0.62931 | -79.00601 | 20895 ft | 216 kts | 207° |
| 2026-05-06 06:18 | -0.64236 | -79.01350 | 20893 ft | 217 kts | 207° |
| 2026-05-06 06:18 | -0.65551 | -79.02104 | 20890 ft | 218 kts | 207° |
| 2026-05-06 06:19 | -0.66872 | -79.02868 | 20885 ft | 219 kts | 207° |
| 2026-05-06 06:19 | -0.68185 | -79.03622 | 20880 ft | 217 kts | 207° |
| 2026-05-06 06:19 | -0.69498 | -79.04371 | 20878 ft | 217 kts | 207° |
| 2026-05-06 06:19 | -0.70802 | -79.05120 | 20869 ft | 216 kts | 207° |
| 2026-05-06 06:20 | -0.72102 | -79.05867 | 20867 ft | 215 kts | 207° |
| 2026-05-06 06:20 | -0.73398 | -79.06613 | 20865 ft | 215 kts | 207° |
| 2026-05-06 06:20 | -0.74679 | -79.07347 | 20857 ft | 215 kts | 207° |
| 2026-05-06 06:20 | -0.75974 | -79.08091 | 20857 ft | 215 kts | 207° |
| 2026-05-06 06:21 | -0.77271 | -79.08836 | 20852 ft | 215 kts | 207° |
| 2026-05-06 06:21 | -0.78569 | -79.09583 | 20847 ft | 216 kts | 207° |
| 2026-05-06 06:21 | -0.79859 | -79.10324 | 20845 ft | 212 kts | 207° |
| 2026-05-06 06:21 | -0.81134 | -79.11056 | 20849 ft | 212 kts | 207° |
| 2026-05-06 06:22 | -0.82417 | -79.11792 | 20840 ft | 213 kts | 207° |
| 2026-05-06 06:22 | -0.83704 | -79.12531 | 20836 ft | 214 kts | 207° |
| 2026-05-06 06:22 | -0.84993 | -79.13272 | 20834 ft | 214 kts | 207° |
| 2026-05-06 06:22 | -0.86268 | -79.14004 | 20834 ft | 214 kts | 207° |
| 2026-05-06 06:23 | -0.87490 | -79.14847 | 20816 ft | 217 kts | 226° |
| 2026-05-06 06:23 | -0.88220 | -79.16156 | 20816 ft | 217 kts | 248° |
| 2026-05-06 06:23 | -0.88756 | -79.17566 | 20818 ft | 217 kts | 249° |
| 2026-05-06 06:23 | -0.89281 | -79.18981 | 20815 ft | 217 kts | 250° |
| 2026-05-06 06:24 | -0.89804 | -79.20399 | 20811 ft | 217 kts | 250° |
| 2026-05-06 06:24 | -0.90327 | -79.21818 | 20803 ft | 218 kts | 250° |
| 2026-05-06 06:24 | -0.90850 | -79.23238 | 20798 ft | 218 kts | 250° |
| 2026-05-06 06:24 | -0.91372 | -79.24656 | 20792 ft | 218 kts | 250° |
| 2026-05-06 06:25 | -0.91890 | -79.26057 | 20787 ft | 218 kts | 249° |
| 2026-05-06 06:25 | -0.92532 | -79.27424 | 20780 ft | 217 kts | 239° |
| 2026-05-06 06:25 | -0.94587 | -79.29575 | 20767 ft | 214 kts | 208° |
| 2026-05-06 06:26 | -0.95933 | -79.30199 | 20766 ft | 213 kts | 199° |
| 2026-05-06 06:26 | -0.97305 | -79.30771 | 20773 ft | 214 kts | 201° |
| 2026-05-06 06:26 | -0.98665 | -79.31395 | 20770 ft | 217 kts | 202° |
| 2026-05-06 06:26 | -1.00044 | -79.32045 | 20766 ft | 220 kts | 202° |
| 2026-05-06 06:27 | -1.01417 | -79.32685 | 20758 ft | 222 kts | 202° |
| 2026-05-06 06:27 | -1.02830 | -79.33342 | 20759 ft | 226 kts | 202° |
| 2026-05-06 06:27 | -1.04269 | -79.34005 | 20747 ft | 231 kts | 202° |
| 2026-05-06 06:27 | -1.05783 | -79.34702 | 20403 ft | 247 kts | 203° |
| 2026-05-06 06:28 | -1.07342 | -79.35426 | 20051 ft | 242 kts | 203° |
| 2026-05-06 06:28 | -1.08814 | -79.36121 | 19693 ft | 226 kts | 202° |
| 2026-05-06 06:28 | -1.10211 | -79.36768 | 19341 ft | 220 kts | 202° |
| 2026-05-06 06:28 | -1.11608 | -79.37417 | 18991 ft | 222 kts | 203° |
| 2026-05-06 06:29 | -1.13003 | -79.38066 | 18660 ft | 221 kts | 202° |
| 2026-05-06 06:29 | -1.14372 | -79.38703 | 18324 ft | 219 kts | 203° |
| 2026-05-06 06:29 | -1.15750 | -79.39343 | 17947 ft | 218 kts | 202° |
| 2026-05-06 06:29 | -1.17126 | -79.39984 | 17561 ft | 218 kts | 202° |
| 2026-05-06 06:30 | -1.18497 | -79.40621 | 17189 ft | 217 kts | 202° |
| 2026-05-06 06:30 | -1.19865 | -79.41256 | 16819 ft | 216 kts | 202° |
| 2026-05-06 06:30 | -1.21226 | -79.41890 | 16451 ft | 216 kts | 202° |
| 2026-05-06 06:30 | -1.22587 | -79.42523 | 16088 ft | 216 kts | 202° |
| 2026-05-06 06:31 | -1.23946 | -79.43154 | 15731 ft | 216 kts | 202° |
| 2026-05-06 06:31 | -1.25288 | -79.43777 | 15383 ft | 215 kts | 202° |
| 2026-05-06 06:31 | -1.26639 | -79.44405 | 15028 ft | 214 kts | 202° |
| 2026-05-06 06:31 | -1.27986 | -79.45032 | 14728 ft | 212 kts | 202° |
| 2026-05-06 06:32 | -1.29322 | -79.45654 | 14476 ft | 214 kts | 199° |
| 2026-05-06 06:32 | -1.30709 | -79.46288 | 14226 ft | 225 kts | 201° |
| 2026-05-06 06:32 | -1.32141 | -79.46953 | 13965 ft | 227 kts | 202° |
| 2026-05-06 06:32 | -1.33567 | -79.47621 | 13664 ft | 227 kts | 202° |
| 2026-05-06 06:33 | -1.34989 | -79.48283 | 13344 ft | 222 kts | 202° |
| 2026-05-06 06:33 | -1.36361 | -79.48923 | 13032 ft | 214 kts | 202° |
| 2026-05-06 06:33 | -1.37692 | -79.49543 | 12777 ft | 208 kts | 202° |
| 2026-05-06 06:33 | -1.38967 | -79.50139 | 12532 ft | 203 kts | 202° |
| 2026-05-06 06:34 | -1.40231 | -79.50728 | 12300 ft | 199 kts | 202° |
| 2026-05-06 06:34 | -1.41477 | -79.51307 | 12081 ft | 196 kts | 202° |
| 2026-05-06 06:34 | -1.42707 | -79.51879 | 11854 ft | 195 kts | 202° |
| 2026-05-06 06:34 | -1.43932 | -79.52449 | 11631 ft | 193 kts | 203° |
| 2026-05-06 06:35 | -1.45146 | -79.53014 | 11419 ft | 192 kts | 203° |
| 2026-05-06 06:35 | -1.46353 | -79.53575 | 11208 ft | 191 kts | 203° |
| 2026-05-06 06:35 | -1.47558 | -79.54135 | 10984 ft | 190 kts | 203° |
| 2026-05-06 06:35 | -1.48741 | -79.54685 | 10789 ft | 190 kts | 204° |
| 2026-05-06 06:36 | -1.49926 | -79.55238 | 10674 ft | 184 kts | 204° |
| 2026-05-06 06:36 | -1.51064 | -79.55768 | 10669 ft | 181 kts | 203° |
| 2026-05-06 06:36 | -1.52211 | -79.56302 | 10664 ft | 182 kts | 204° |
| 2026-05-06 06:36 | -1.53364 | -79.56838 | 10664 ft | 183 kts | 203° |
| 2026-05-06 06:37 | -1.54521 | -79.57376 | 10666 ft | 184 kts | 203° |
| 2026-05-06 06:37 | -1.55685 | -79.57915 | 10583 ft | 188 kts | 203° |
| 2026-05-06 06:37 | -1.56879 | -79.58468 | 10352 ft | 183 kts | 204° |
| 2026-05-06 06:37 | -1.58006 | -79.58993 | 10129 ft | 180 kts | 204° |
| 2026-05-06 06:38 | -1.59136 | -79.59519 | 9892 ft | 179 kts | 204° |
| 2026-05-06 06:38 | -1.60260 | -79.60040 | 9638 ft | 178 kts | 204° |
| 2026-05-06 06:38 | -1.61378 | -79.60560 | 9382 ft | 177 kts | 204° |
| 2026-05-06 06:38 | -1.62494 | -79.61080 | 9131 ft | 177 kts | 204° |
| 2026-05-06 06:39 | -1.63608 | -79.61598 | 8881 ft | 176 kts | 204° |
| 2026-05-06 06:39 | -1.64720 | -79.62115 | 8636 ft | 176 kts | 204° |
| 2026-05-06 06:39 | -1.65456 | -79.62457 | 8478 ft | 176 kts | 204° |
| 2026-05-06 06:39 | -1.66592 | -79.62985 | 8228 ft | 175 kts | 204° |
| 2026-05-06 06:40 | -1.67680 | -79.63492 | 7990 ft | 174 kts | 204° |
| 2026-05-06 06:40 | -1.68775 | -79.64001 | 7748 ft | 174 kts | 204° |
| 2026-05-06 06:40 | -1.69869 | -79.64509 | 7507 ft | 173 kts | 204° |
| 2026-05-06 06:40 | -1.70962 | -79.65017 | 7270 ft | 173 kts | 204° |
| 2026-05-06 06:41 | -1.72049 | -79.65522 | 7039 ft | 173 kts | 204° |
| 2026-05-06 06:41 | -1.73137 | -79.66028 | 6799 ft | 172 kts | 204° |
| 2026-05-06 06:41 | -1.74224 | -79.66533 | 6572 ft | 172 kts | 204° |
| 2026-05-06 06:41 | -1.75309 | -79.67038 | 6342 ft | 172 kts | 204° |
| 2026-05-06 06:42 | -1.76393 | -79.67542 | 6096 ft | 172 kts | 204° |
| 2026-05-06 06:42 | -1.77463 | -79.68039 | 5863 ft | 173 kts | 204° |
| 2026-05-06 06:42 | -1.78562 | -79.68549 | 5626 ft | 175 kts | 204° |
| 2026-05-06 06:42 | -1.79671 | -79.69062 | 5385 ft | 175 kts | 205° |
| 2026-05-06 06:43 | -1.80772 | -79.69575 | 5139 ft | 174 kts | 205° |
| 2026-05-06 06:43 | -1.81862 | -79.70082 | 4899 ft | 171 kts | 205° |
| 2026-05-06 06:43 | -1.82934 | -79.70580 | 4659 ft | 168 kts | 205° |
| 2026-05-06 06:43 | -1.83996 | -79.71075 | 4407 ft | 168 kts | 205° |
| 2026-05-06 06:44 | -1.85056 | -79.71568 | 4157 ft | 168 kts | 205° |
| 2026-05-06 06:44 | -1.86115 | -79.72061 | 3908 ft | 168 kts | 205° |
| 2026-05-06 06:44 | -1.87167 | -79.72550 | 3672 ft | 167 kts | 205° |
| 2026-05-06 06:44 | -1.88205 | -79.73033 | 3489 ft | 163 kts | 205° |
| 2026-05-06 06:45 | -1.89194 | -79.73493 | 3483 ft | 154 kts | 205° |
| 2026-05-06 06:45 | -1.90153 | -79.73941 | 3475 ft | 149 kts | 205° |
| 2026-05-06 06:45 | -1.91086 | -79.74375 | 3472 ft | 147 kts | 205° |
| 2026-05-06 06:45 | -1.92005 | -79.74802 | 3472 ft | 145 kts | 205° |
| 2026-05-06 06:46 | -1.92911 | -79.75225 | 3472 ft | 143 kts | 205° |
| 2026-05-06 06:46 | -1.93806 | -79.75723 | 3335 ft | 152 kts | 211° |
| 2026-05-06 06:46 | -1.94735 | -79.76271 | 3172 ft | 157 kts | 210° |
| 2026-05-06 06:46 | -1.95676 | -79.76815 | 3009 ft | 151 kts | 211° |
| 2026-05-06 06:47 | -1.96512 | -79.77302 | 2971 ft | 129 kts | 211° |
| 2026-05-06 06:47 | -1.97252 | -79.77732 | 2870 ft | 124 kts | 210° |
| 2026-05-06 06:47 | -1.98020 | -79.78180 | 2649 ft | 130 kts | 211° |
| 2026-05-06 06:47 | -1.98804 | -79.78639 | 2435 ft | 131 kts | 211° |
| 2026-05-06 06:48 | -1.99602 | -79.79103 | 2218 ft | 133 kts | 211° |
| 2026-05-06 06:48 | -2.00397 | -79.79567 | 2172 ft | 131 kts | 211° |
| 2026-05-06 06:48 | -2.01195 | -79.80030 | 2159 ft | 133 kts | 211° |
| 2026-05-06 06:48 | -2.01960 | -79.80476 | 2165 ft | 123 kts | 210° |
| 2026-05-06 06:49 | -2.02698 | -79.80908 | 2166 ft | 121 kts | 212° |
| 2026-05-06 06:49 | -2.03190 | -79.81543 | 2138 ft | 121 kts | 255° |
| 2026-05-06 06:49 | -2.03118 | -79.82374 | 2057 ft | 125 kts | 294° |
| 2026-05-06 06:49 | -2.02484 | -79.82951 | 1986 ft | 127 kts | 339° |
| 2026-05-06 06:50 | -2.01633 | -79.82939 | 1976 ft | 125 kts | 21° |
| 2026-05-06 06:50 | -2.00889 | -79.82497 | 1980 ft | 124 kts | 31° |
| 2026-05-06 06:50 | -2.00157 | -79.82062 | 1978 ft | 121 kts | 30° |
| 2026-05-06 06:50 | -1.99557 | -79.81497 | 1977 ft | 121 kts | 69° |
| 2026-05-06 06:51 | -1.99683 | -79.80709 | 1993 ft | 121 kts | 130° |
| 2026-05-06 06:51 | -2.00427 | -79.80354 | 1987 ft | 120 kts | 169° |
| 2026-05-06 06:51 | -2.01257 | -79.80281 | 1976 ft | 122 kts | 187° |
| 2026-05-06 06:51 | -2.02020 | -79.80581 | 1991 ft | 118 kts | 208° |
| 2026-05-06 06:52 | -2.02749 | -79.80964 | 1987 ft | 118 kts | 208° |
| 2026-05-06 06:52 | -2.03471 | -79.81342 | 1991 ft | 117 kts | 206° |
| 2026-05-06 06:52 | -2.04160 | -79.81698 | 1997 ft | 107 kts | 209° |
| 2026-05-06 06:52 | -2.04806 | -79.82048 | 1993 ft | 105 kts | 209° |
| 2026-05-06 06:53 | -2.05446 | -79.82403 | 1994 ft | 105 kts | 210° |
| 2026-05-06 06:53 | -2.06081 | -79.82773 | 1958 ft | 108 kts | 211° |
| 2026-05-06 06:53 | -2.06754 | -79.83160 | 1835 ft | 114 kts | 211° |
| 2026-05-06 06:53 | -2.07394 | -79.83534 | 1690 ft | 97 kts | 210° |
| 2026-05-06 06:54 | -2.07939 | -79.83846 | 1569 ft | 88 kts | 211° |
| 2026-05-06 06:54 | -2.08461 | -79.84150 | 1449 ft | 86 kts | 210° |
| 2026-05-06 06:54 | -2.08967 | -79.84447 | 1339 ft | 83 kts | 212° |
| 2026-05-06 06:54 | -2.09383 | -79.84751 | 1276 ft | 71 kts | 217° |
| 2026-05-06 06:55 | -2.09800 | -79.85033 | 1194 ft | 71 kts | 213° |
| 2026-05-06 06:55 | -2.10247 | -79.85257 | 1119 ft | 73 kts | 203° |
| 2026-05-06 06:55 | -2.10703 | -79.85478 | 1043 ft | 74 kts | 208° |
| 2026-05-06 06:55 | -2.11135 | -79.85740 | 997 ft | 72 kts | 211° |
| 2026-05-06 06:56 | -2.11578 | -79.85995 | 927 ft | 75 kts | 207° |
| 2026-05-06 06:56 | -2.12026 | -79.86251 | 860 ft | 74 kts | 207° |
| 2026-05-06 06:56 | -2.12485 | -79.86506 | 739 ft | 77 kts | 209° |
| 2026-05-06 06:56 | -2.12936 | -79.86777 | 629 ft | 74 kts | 208° |
| 2026-05-06 06:57 | -2.13385 | -79.87027 | 490 ft | 76 kts | 205° |
| 2026-05-06 06:57 | -2.13832 | -79.87286 | 315 ft | 71 kts | 206° |
| 2026-05-06 06:57 | -2.14259 | -79.87522 | 168 ft | 69 kts | 204° |
| 2026-05-06 06:57 | -2.14660 | -79.87743 | 73 ft | 65 kts | 206° |
| 2026-05-06 06:58 | -2.15023 | -79.87956 | 29 ft | 54 kts | 206° |
| 2026-05-06 06:58 | -2.15322 | -79.88124 | 23 ft | 46 kts | 210° |
| 2026-05-06 06:58 | -2.15588 | -79.88271 | 20 ft | 42 kts | 213° |
| 2026-05-06 06:58 | -2.15830 | -79.88415 | 20 ft | 40 kts | 212° |
| 2026-05-06 06:59 | -2.15974 | -79.88502 | 21 ft | 17 kts | 211° |
| 2026-05-06 06:59 | -2.16009 | -79.88587 | 22 ft | 17 kts | 295° |
| 2026-05-06 06:59 | -2.16074 | -79.88667 | 22 ft | 19 kts | 208° |
| 2026-05-06 06:59 | -2.16185 | -79.88731 | 22 ft | 17 kts | 208° |
| 2026-05-06 07:00 | -2.16294 | -79.88792 | 22 ft | 19 kts | 211° |
| 2026-05-06 07:00 | -2.16399 | -79.88857 | 22 ft | 19 kts | 213° |
| 2026-05-06 07:00 | -2.16492 | -79.88906 | 24 ft | 15 kts | 210° |
| 2026-05-06 07:00 | -2.16557 | -79.88959 | 22 ft | 7 kts | 272° |
| 2026-05-06 07:01 | -2.16530 | -79.89033 | 24 ft | 13 kts | 277° |
| 2026-05-06 07:01 | -2.16544 | -79.89059 | 23 ft | 0 kts | 208° |